createdAt,value
2022-10-17T00:00:25.016Z,96922.03
2022-10-17T00:00:56.954Z,96923.78
2022-10-17T00:01:28.860Z,96920.31
2022-10-17T00:02:00.895Z,96923.50
2022-10-17T00:02:32.800Z,96925.34
2022-10-17T00:03:04.730Z,96924.06
2022-10-17T00:03:37.882Z,96920.50
2022-10-17T00:04:09.789Z,96920.66
2022-10-17T00:04:41.647Z,96920.91
2022-10-17T00:05:13.580Z,96921.28
2022-10-17T00:05:48.037Z,96913.97
2022-10-17T00:06:20.031Z,96915.47
2022-10-17T00:06:51.883Z,96915.53
2022-10-17T00:07:23.636Z,96916.41
2022-10-17T00:07:55.717Z,96919.53
2022-10-17T00:08:27.655Z,96916.41
2022-10-17T00:08:59.689Z,96920.91
2022-10-17T00:09:31.651Z,96922.41
2022-10-17T00:10:04.766Z,96926.56
2022-10-17T00:10:37.092Z,96929.16
2022-10-17T00:11:15.181Z,96927.69
2022-10-17T00:11:47.099Z,96926.81
2022-10-17T00:12:18.931Z,96928.38
2022-10-17T00:12:51.800Z,96922.41
2022-10-17T00:13:23.897Z,96922.66
2022-10-17T00:13:56.520Z,96925.78
2022-10-17T00:14:28.395Z,96935.34
2022-10-17T00:15:00.325Z,96936.22
2022-10-17T00:15:32.800Z,96932.81
2022-10-17T00:16:05.280Z,96930.91
2022-10-17T00:16:37.603Z,96929.44
2022-10-17T00:17:09.427Z,96937.06
2022-10-17T00:17:42.038Z,96933.06
2022-10-17T00:18:13.812Z,96930.91
2022-10-17T00:18:45.749Z,96927.88
2022-10-17T00:19:17.843Z,96924.47
2022-10-17T00:19:49.761Z,96934.88
2022-10-17T00:20:21.694Z,96930.63
2022-10-17T00:20:53.517Z,96926.81
2022-10-17T00:21:26.362Z,96922.56
2022-10-17T00:21:58.180Z,96925.34
2022-10-17T00:22:30.149Z,96937.31
2022-10-17T00:23:02.037Z,96922.66
2022-10-17T00:23:33.923Z,96930.13
2022-10-17T00:24:05.969Z,96924.41
2022-10-17T00:24:37.804Z,96931.84
2022-10-17T00:25:09.836Z,96926.91
2022-10-17T00:25:41.970Z,96934.19
2022-10-17T00:26:14.957Z,96930.28
2022-10-17T00:26:46.713Z,96929.50
2022-10-17T00:27:18.584Z,96924.91
2022-10-17T00:27:50.441Z,96934.53
2022-10-17T00:28:22.505Z,96931.19
2022-10-17T00:28:56.414Z,96929.16
2022-10-17T00:29:28.362Z,96936.91
2022-10-17T00:30:00.452Z,96934.56
2022-10-17T00:30:32.909Z,96929.84
2022-10-17T00:31:06.510Z,96934.88
2022-10-17T00:31:38.388Z,96938.53
2022-10-17T00:32:10.127Z,96933.94
2022-10-17T00:32:42.485Z,96937.41
2022-10-17T00:33:14.324Z,96940.53
2022-10-17T00:33:47.445Z,96938.44
2022-10-17T00:34:20.902Z,96928.03
2022-10-17T00:34:52.940Z,96936.72
2022-10-17T00:35:24.858Z,96945.31
2022-10-17T00:36:19.183Z,96938.00
2022-10-17T00:36:51.023Z,96938.19
2022-10-17T00:37:23.342Z,96940.94
2022-10-17T00:37:55.184Z,96941.59
2022-10-17T00:38:27.345Z,96946.44
2022-10-17T00:38:59.791Z,96945.81
2022-10-17T00:39:31.756Z,96946.97
2022-10-17T00:40:05.658Z,96945.75
2022-10-17T00:40:37.460Z,96951.53
2022-10-17T00:41:12.192Z,96954.31
2022-10-17T00:41:44.039Z,96951.28
2022-10-17T00:42:16.295Z,96948.50
2022-10-17T00:42:48.447Z,96951.63
2022-10-17T00:43:20.372Z,96947.72
2022-10-17T00:44:07.998Z,96951.28
2022-10-17T00:44:39.723Z,96956.31
2022-10-17T00:45:20.524Z,96955.25
2022-10-17T00:45:52.796Z,96946.97
2022-10-17T00:46:27.826Z,96945.22
2022-10-17T00:47:03.960Z,96946.84
2022-10-17T00:47:36.980Z,96951.63
2022-10-17T00:48:11.597Z,96949.31
2022-10-17T00:48:44.342Z,96946.88
2022-10-17T00:49:16.148Z,96951.81
2022-10-17T00:49:48.603Z,96948.31
2022-10-17T00:50:20.953Z,96948.94
2022-10-17T00:50:55.102Z,96951.53
2022-10-17T00:51:33.883Z,96946.34
2022-10-17T00:52:26.868Z,96943.75
2022-10-17T00:53:02.786Z,96949.47
2022-10-17T00:53:37.032Z,96945.03
2022-10-17T00:54:09.989Z,96942.72
2022-10-17T00:54:46.583Z,96941.25
2022-10-17T00:55:23.481Z,96942.88
2022-10-17T00:55:55.487Z,96950.25
2022-10-17T00:56:27.787Z,96940.09
2022-10-17T00:57:00.601Z,96950.59
2022-10-17T00:57:32.707Z,96951.44
2022-10-17T00:58:06.660Z,96951.72
2022-10-17T00:58:38.726Z,96953.09
2022-10-17T00:59:12.369Z,96947.00
2022-10-17T00:59:50.748Z,96950.50
2022-10-17T01:00:24.613Z,96953.78
2022-10-17T01:00:56.564Z,96960.66
2022-10-17T01:01:29.588Z,96954.38
2022-10-17T01:02:13.566Z,96957.88
2022-10-17T01:02:45.625Z,96955.69
2022-10-17T01:03:18.465Z,96955.69
2022-10-17T01:03:52.755Z,96953.78
2022-10-17T01:04:24.636Z,96953.19
2022-10-17T01:04:59.541Z,96953.28
2022-10-17T01:05:31.464Z,96953.81
2022-10-17T01:06:03.555Z,96961.69
2022-10-17T01:06:35.444Z,96955.53
2022-10-17T01:07:07.584Z,96954.66
2022-10-17T01:07:41.683Z,96954.06
2022-10-17T01:08:14.131Z,96954.84
2022-10-17T01:08:46.188Z,96951.13
2022-10-17T01:09:18.172Z,96955.63
2022-10-17T01:09:51.108Z,96952.41
2022-10-17T01:10:30.203Z,96956.91
2022-10-17T01:11:32.374Z,96964.00
2022-10-17T01:12:37.337Z,96962.41
2022-10-17T01:13:24.390Z,96961.44
2022-10-17T01:14:13.727Z,96964.56
2022-10-17T01:15:03.610Z,96971.22
2022-10-17T01:15:56.987Z,96968.22
2022-10-17T01:16:49.033Z,96961.16
2022-10-17T01:17:48.652Z,96965.19
2022-10-17T01:18:56.738Z,96965.53
2022-10-17T01:19:43.907Z,96968.81
2022-10-17T01:20:40.699Z,96964.91
2022-10-17T01:21:18.317Z,96964.72
2022-10-17T01:21:56.913Z,96963.75
2022-10-17T01:22:45.882Z,96957.53
2022-10-17T01:23:42.094Z,96966.81
2022-10-17T01:24:36.968Z,96960.44
2022-10-17T01:25:22.271Z,96965.81
2022-10-17T01:26:05.279Z,96964.47
2022-10-17T01:26:38.105Z,96960.81
2022-10-17T01:27:15.618Z,96961.81
2022-10-17T01:28:10.339Z,96966.16
2022-10-17T01:30:00.627Z,96962.63
2022-10-17T01:31:09.971Z,96969.63
2022-10-17T01:31:48.680Z,96963.63
2022-10-17T01:32:32.532Z,96961.44
2022-10-17T01:33:10.307Z,96963.38
2022-10-17T01:34:04.151Z,96962.00
2022-10-17T01:34:48.395Z,96959.84
2022-10-17T01:35:29.894Z,96960.19
2022-10-17T01:36:12.640Z,96954.47
2022-10-17T01:37:08.399Z,96949.63
2022-10-17T01:38:12.913Z,96952.88
2022-10-17T01:38:52.119Z,96948.66
2022-10-17T01:39:45.306Z,96948.59
2022-10-17T01:40:31.725Z,96947.13
2022-10-17T01:41:09.055Z,96948.47
2022-10-17T01:42:07.268Z,96947.19
2022-10-17T01:42:46.091Z,96945.28
2022-10-17T01:43:32.526Z,96946.88
2022-10-17T01:44:22.035Z,96949.78
2022-10-17T01:45:03.725Z,96944.88
2022-10-17T01:46:00.762Z,96951.34
2022-10-17T01:46:37.382Z,96953.16
2022-10-17T01:47:15.680Z,96948.69
2022-10-17T01:47:53.478Z,96945.47
2022-10-17T01:48:32.999Z,96945.19
2022-10-17T01:49:08.594Z,96947.94
2022-10-17T01:49:45.725Z,96944.16
2022-10-17T01:50:26.004Z,96946.69
2022-10-17T01:51:16.942Z,96942.19
2022-10-17T01:51:52.922Z,96938.84
2022-10-17T01:52:34.641Z,96935.06
2022-10-17T01:53:18.408Z,96944.25
2022-10-17T01:54:07.189Z,96939.91
2022-10-17T01:54:42.623Z,96938.75
2022-10-17T01:55:26.789Z,96936.38
2022-10-17T01:56:03.421Z,96935.81
2022-10-17T01:56:38.053Z,96939.53
2022-10-17T01:57:17.366Z,96932.00
2022-10-17T01:57:57.718Z,96934.88
2022-10-17T01:58:37.990Z,96927.34
2022-10-17T01:59:17.917Z,96930.56
2022-10-17T01:59:53.270Z,96919.84
2022-10-17T02:00:27.969Z,96932.38
2022-10-17T02:01:05.354Z,96921.22
2022-10-17T02:01:39.151Z,96924.81
2022-10-17T02:02:14.560Z,96937.59
2022-10-17T02:02:49.970Z,96930.59
2022-10-17T02:03:22.969Z,96936.72
2022-10-17T02:03:58.142Z,96932.25
2022-10-17T02:04:30.095Z,96932.25
2022-10-17T02:05:04.060Z,96928.09
2022-10-17T02:05:40.106Z,96925.50
2022-10-17T02:06:12.155Z,96935.47
2022-10-17T02:06:44.196Z,96929.75
2022-10-17T02:07:18.886Z,96922.56
2022-10-17T02:07:51.584Z,96919.53
2022-10-17T02:08:29.816Z,96923.09
2022-10-17T02:09:02.475Z,96925.41
2022-10-17T02:09:36.034Z,96920.63
2022-10-17T02:10:21.874Z,96922.72
2022-10-17T02:10:53.655Z,96932.50
2022-10-17T02:11:27.413Z,96927.13
2022-10-17T02:12:20.676Z,96927.09
2022-10-17T02:13:07.601Z,96924.28
2022-10-17T02:13:48.342Z,96928.63
2022-10-17T02:14:23.076Z,96925.75
2022-10-17T02:15:13.589Z,96924.81
2022-10-17T02:15:48.162Z,96929.38
2022-10-17T02:16:36.913Z,96928.53
2022-10-17T02:17:23.804Z,96928.97
2022-10-17T02:18:31.103Z,96922.03
2022-10-17T02:19:08.905Z,96919.94
2022-10-17T02:19:51.634Z,96923.75
2022-10-17T02:20:45.653Z,96922.97
2022-10-17T02:21:30.405Z,96923.84
2022-10-17T02:22:08.136Z,96919.28
2022-10-17T02:22:49.322Z,96925.88
2022-10-17T02:23:27.609Z,96930.00
2022-10-17T02:24:28.236Z,96924.34
2022-10-17T02:25:18.397Z,96930.78
2022-10-17T02:26:08.945Z,96928.09
2022-10-17T02:26:46.592Z,96926.41
2022-10-17T02:27:54.451Z,96927.63
2022-10-17T02:28:39.691Z,96930.88
2022-10-17T02:29:25.854Z,96927.94
2022-10-17T02:30:10.932Z,96932.09
2022-10-17T02:31:03.004Z,96922.53
2022-10-17T02:31:45.305Z,96934.78
2022-10-17T02:32:26.357Z,96929.25
2022-10-17T02:33:10.457Z,96932.06
2022-10-17T02:33:56.853Z,96927.53
2022-10-17T02:34:37.101Z,96934.13
2022-10-17T02:35:13.198Z,96930.78
2022-10-17T02:35:50.709Z,96931.91
2022-10-17T02:36:29.250Z,96928.31
2022-10-17T02:37:05.385Z,96930.56
2022-10-17T02:37:38.366Z,96938.19
2022-10-17T02:38:12.320Z,96929.97
2022-10-17T02:38:45.444Z,96932.13
2022-10-17T02:39:21.592Z,96930.78
2022-10-17T02:39:56.849Z,96937.75
2022-10-17T02:40:31.396Z,96940.78
2022-10-17T02:41:05.133Z,96944.69
2022-10-17T02:41:38.904Z,96938.84
2022-10-17T02:42:13.644Z,96936.97
2022-10-17T02:42:46.440Z,96945.59
2022-10-17T02:43:20.375Z,96945.47
2022-10-17T02:43:53.388Z,96941.00
2022-10-17T02:44:27.548Z,96942.66
2022-10-17T02:45:02.203Z,96940.28
2022-10-17T02:45:36.794Z,96943.31
2022-10-17T02:46:10.055Z,96942.88
2022-10-17T02:46:45.258Z,96940.44
2022-10-17T02:47:37.088Z,96943.41
2022-10-17T02:48:16.548Z,96946.41
2022-10-17T02:49:03.329Z,96940.13
2022-10-17T02:49:39.901Z,96946.31
2022-10-17T02:50:11.961Z,96940.13
2022-10-17T02:51:12.616Z,96948.41
2022-10-17T02:51:56.135Z,96942.00
2022-10-17T02:52:38.398Z,96939.72
2022-10-17T02:53:16.162Z,96938.91
2022-10-17T02:54:12.853Z,96937.69
2022-10-17T02:55:17.352Z,96938.13
2022-10-17T02:55:58.764Z,96940.44
2022-10-17T02:56:37.197Z,96948.03
2022-10-17T02:57:13.009Z,96944.91
2022-10-17T02:57:56.085Z,96945.34
2022-10-17T02:58:32.881Z,96945.34
2022-10-17T02:59:09.906Z,96950.03
2022-10-17T02:59:45.653Z,96950.50
2022-10-17T03:00:19.731Z,96953.63
2022-10-17T03:00:52.796Z,96952.97
2022-10-17T03:01:25.450Z,96949.28
2022-10-17T03:01:57.802Z,96949.94
2022-10-17T03:02:38.996Z,96952.88
2022-10-17T03:03:30.097Z,96954.44
2022-10-17T03:04:07.627Z,96955.69
2022-10-17T03:04:43.642Z,96951.19
2022-10-17T03:05:23.952Z,96949.19
2022-10-17T03:05:56.376Z,96955.44
2022-10-17T03:06:30.723Z,96953.09
2022-10-17T03:07:02.887Z,96949.72
2022-10-17T03:07:35.328Z,96952.53
2022-10-17T03:08:07.127Z,96959.78
2022-10-17T03:09:16.341Z,96957.44
2022-10-17T03:09:48.218Z,96952.53
2022-10-17T03:10:22.392Z,96947.69
2022-10-17T03:10:54.324Z,96952.41
2022-10-17T03:11:27.558Z,96953.94
2022-10-17T03:11:59.452Z,96948.16
2022-10-17T03:12:31.891Z,96965.03
2022-10-17T03:13:04.005Z,96958.31
2022-10-17T03:13:39.897Z,96956.34
2022-10-17T03:14:12.451Z,96950.97
2022-10-17T03:14:45.559Z,96952.63
2022-10-17T03:15:17.456Z,96954.31
2022-10-17T03:15:49.589Z,96949.84
2022-10-17T03:16:21.615Z,96951.06
2022-10-17T03:16:53.604Z,96954.53
2022-10-17T03:17:25.454Z,96953.19
2022-10-17T03:17:57.835Z,96951.88
2022-10-17T03:18:29.826Z,96951.88
2022-10-17T03:19:05.283Z,96955.53
2022-10-17T03:19:38.462Z,96954.78
2022-10-17T03:20:10.799Z,96950.97
2022-10-17T03:20:43.000Z,96953.88
2022-10-17T03:21:15.028Z,96947.97
2022-10-17T03:21:47.383Z,96960.81
2022-10-17T03:22:19.207Z,96955.31
2022-10-17T03:22:52.498Z,96953.31
2022-10-17T03:23:24.339Z,96949.84
2022-10-17T03:23:57.155Z,96945.81
2022-10-17T03:24:29.437Z,96952.75
2022-10-17T03:25:01.500Z,96956.66
2022-10-17T03:25:33.779Z,96951.63
2022-10-17T03:26:06.729Z,96950.50
2022-10-17T03:26:39.807Z,96951.63
2022-10-17T03:27:12.858Z,96954.31
2022-10-17T03:27:44.878Z,96955.31
2022-10-17T03:28:16.694Z,96955.88
2022-10-17T03:28:51.970Z,96953.41
2022-10-17T03:29:26.582Z,96951.41
2022-10-17T03:29:59.255Z,96956.66
2022-10-17T03:30:31.992Z,96959.03
2022-10-17T03:31:12.713Z,96959.78
2022-10-17T03:31:45.284Z,96964.59
2022-10-17T03:32:17.172Z,96956.25
2022-10-17T03:32:48.981Z,96957.56
2022-10-17T03:33:20.823Z,96959.03
2022-10-17T03:33:52.768Z,96964.97
2022-10-17T03:34:24.917Z,96960.38
2022-10-17T03:34:57.315Z,96966.16
2022-10-17T03:35:29.216Z,96968.94
2022-10-17T03:36:05.900Z,96967.63
2022-10-17T03:36:37.934Z,96967.06
2022-10-17T03:37:10.048Z,96966.28
2022-10-17T03:37:44.315Z,96967.72
2022-10-17T03:38:18.146Z,96964.72
2022-10-17T03:38:53.901Z,96964.16
2022-10-17T03:39:26.420Z,96968.63
2022-10-17T03:39:58.861Z,96974.78
2022-10-17T03:40:30.774Z,96969.06
2022-10-17T03:41:04.271Z,96971.31
2022-10-17T03:41:37.517Z,96974.69
2022-10-17T03:42:09.609Z,96969.31
2022-10-17T03:42:41.829Z,96969.09
2022-10-17T03:43:13.612Z,96980.25
2022-10-17T03:43:46.495Z,96974.44
2022-10-17T03:44:19.529Z,96980.38
2022-10-17T03:44:51.418Z,96974.78
2022-10-17T03:45:23.838Z,96970.06
2022-10-17T03:45:58.618Z,96976.00
2022-10-17T03:46:30.832Z,96980.69
2022-10-17T03:47:04.949Z,96977.00
2022-10-17T03:47:37.009Z,96976.66
2022-10-17T03:48:09.307Z,96976.66
2022-10-17T03:48:41.101Z,96975.09
2022-10-17T03:49:13.149Z,96981.13
2022-10-17T03:49:45.080Z,96977.69
2022-10-17T03:50:17.240Z,96980.47
2022-10-17T03:50:49.548Z,96984.63
2022-10-17T03:51:21.640Z,96982.38
2022-10-17T03:52:01.050Z,96985.72
2022-10-17T03:52:33.311Z,96979.00
2022-10-17T03:53:06.530Z,96977.00
2022-10-17T03:53:38.395Z,96976.34
2022-10-17T03:54:11.328Z,96982.38
2022-10-17T03:54:43.204Z,96984.28
2022-10-17T03:55:15.734Z,96981.28
2022-10-17T03:55:48.524Z,96980.47
2022-10-17T03:56:25.038Z,96983.16
2022-10-17T03:57:12.425Z,96977.34
2022-10-17T03:57:45.633Z,96981.38
2022-10-17T03:58:20.359Z,96984.94
2022-10-17T03:58:52.772Z,96979.56
2022-10-17T03:59:24.615Z,96981.50
2022-10-17T04:00:06.476Z,96981.59
2022-10-17T04:00:46.000Z,96984.94
2022-10-17T04:01:19.457Z,96984.63
2022-10-17T04:01:51.591Z,96982.72
2022-10-17T04:02:24.364Z,96979.81
2022-10-17T04:02:57.750Z,96978.03
2022-10-17T04:03:31.085Z,96977.69
2022-10-17T04:04:03.056Z,96982.38
2022-10-17T04:04:38.619Z,96983.59
2022-10-17T04:05:10.536Z,96975.34
2022-10-17T04:05:42.361Z,96987.63
2022-10-17T04:06:14.323Z,96978.25
2022-10-17T04:06:48.847Z,96979.00
2022-10-17T04:07:20.794Z,96986.50
2022-10-17T04:07:53.774Z,96981.94
2022-10-17T04:08:34.043Z,96981.28
2022-10-17T04:09:18.309Z,96980.03
2022-10-17T04:09:59.962Z,96978.69
2022-10-17T04:10:32.482Z,96984.94
2022-10-17T04:11:08.411Z,96981.38
2022-10-17T04:11:40.599Z,96985.28
2022-10-17T04:12:12.724Z,96977.34
2022-10-17T04:12:45.246Z,96984.97
2022-10-17T04:13:17.019Z,96978.22
2022-10-17T04:13:56.854Z,96982.28
2022-10-17T04:14:29.508Z,96986.75
2022-10-17T04:15:01.716Z,96981.81
2022-10-17T04:15:33.790Z,96988.72
2022-10-17T04:16:10.226Z,96985.91
2022-10-17T04:16:46.727Z,96990.06
2022-10-17T04:17:23.056Z,96993.56
2022-10-17T04:17:55.167Z,96992.53
2022-10-17T04:18:27.235Z,96989.19
2022-10-17T04:19:00.572Z,96989.19
2022-10-17T04:19:36.137Z,96999.13
2022-10-17T04:20:08.814Z,96991.09
2022-10-17T04:20:40.952Z,96988.06
2022-10-17T04:21:13.483Z,96992.31
2022-10-17T04:21:45.673Z,96994.44
2022-10-17T04:22:18.891Z,96994.22
2022-10-17T04:22:51.713Z,96994.88
2022-10-17T04:23:23.838Z,96996.13
2022-10-17T04:24:00.985Z,96994.78
2022-10-17T04:25:05.616Z,96997.53
2022-10-17T04:25:46.814Z,96997.91
2022-10-17T04:26:19.007Z,97000.34
2022-10-17T04:26:51.308Z,96990.84
2022-10-17T04:27:24.581Z,96996.91
2022-10-17T04:27:56.701Z,96996.44
2022-10-17T04:28:29.223Z,96992.22
2022-10-17T04:29:01.191Z,97002.03
2022-10-17T04:29:33.378Z,97001.47
2022-10-17T04:30:25.083Z,97002.34
2022-10-17T04:31:05.411Z,97009.84
2022-10-17T04:31:43.247Z,97001.91
2022-10-17T04:32:22.237Z,96993.88
2022-10-17T04:33:02.637Z,97004.72
2022-10-17T04:33:34.502Z,97002.03
2022-10-17T04:34:07.662Z,97008.88
2022-10-17T04:34:39.592Z,97005.38
2022-10-17T04:35:11.642Z,97011.41
2022-10-17T04:35:55.816Z,97012.31
2022-10-17T04:36:27.743Z,97010.41
2022-10-17T04:36:59.743Z,97005.41
2022-10-17T04:37:32.642Z,97009.75
2022-10-17T04:38:07.866Z,97017.22
2022-10-17T04:38:39.802Z,97009.84
2022-10-17T04:39:11.774Z,97008.19
2022-10-17T04:39:46.007Z,97015.53
2022-10-17T04:40:17.962Z,97012.59
2022-10-17T04:40:50.323Z,97018.22
2022-10-17T04:41:22.209Z,97008.03
2022-10-17T04:41:54.153Z,97013.28
2022-10-17T04:42:28.866Z,97009.47
2022-10-17T04:43:02.019Z,97019.97
2022-10-17T04:43:40.129Z,97012.72
2022-10-17T04:44:12.409Z,97013.31
2022-10-17T04:44:48.402Z,97011.41
2022-10-17T04:45:22.647Z,97010.59
2022-10-17T04:46:01.282Z,97003.22
2022-10-17T04:46:34.622Z,97010.03
2022-10-17T04:47:08.696Z,97015.97
2022-10-17T04:47:40.743Z,97004.16
2022-10-17T04:48:12.812Z,97006.38
2022-10-17T04:48:44.853Z,97001.31
2022-10-17T04:49:16.901Z,97013.50
2022-10-17T04:49:52.144Z,97014.81
2022-10-17T04:50:26.101Z,97013.50
2022-10-17T04:51:27.458Z,97004.59
2022-10-17T04:52:28.643Z,97017.72
2022-10-17T04:53:00.640Z,97011.59
2022-10-17T04:53:34.640Z,97017.94
2022-10-17T04:54:07.148Z,97020.19
2022-10-17T04:54:41.175Z,97019.75
2022-10-17T04:55:15.215Z,97017.50
2022-10-17T04:55:47.473Z,97019.53
2022-10-17T04:56:21.609Z,97017.19
2022-10-17T04:56:53.660Z,97017.50
2022-10-17T04:57:25.646Z,97013.72
2022-10-17T04:58:05.280Z,97016.50
2022-10-17T04:58:38.175Z,97016.94
2022-10-17T04:59:10.713Z,97016.28
2022-10-17T04:59:44.798Z,97020.41
2022-10-17T05:00:23.391Z,97013.94
2022-10-17T05:01:10.973Z,97016.38
2022-10-17T05:01:44.039Z,97019.97
2022-10-17T05:02:15.896Z,97020.53
2022-10-17T05:02:47.719Z,97016.94
2022-10-17T05:03:20.996Z,97022.84
2022-10-17T05:03:53.376Z,97021.06
2022-10-17T05:04:25.678Z,97012.38
2022-10-17T05:04:58.720Z,97020.72
2022-10-17T05:05:31.049Z,97024.00
2022-10-17T05:06:15.141Z,97017.19
2022-10-17T05:06:51.579Z,97023.09
2022-10-17T05:07:42.104Z,97023.25
2022-10-17T05:08:23.849Z,97023.50
2022-10-17T05:08:57.449Z,97019.59
2022-10-17T05:09:29.788Z,97016.59
2022-10-17T05:10:01.779Z,97009.47
2022-10-17T05:10:41.713Z,97014.03
2022-10-17T05:11:23.972Z,97012.13
2022-10-17T05:11:55.953Z,97013.13
2022-10-17T05:12:29.495Z,97017.94
2022-10-17T05:13:02.555Z,97020.72
2022-10-17T05:13:36.966Z,97021.81
2022-10-17T05:14:09.388Z,97019.94
2022-10-17T05:14:41.410Z,97021.81
2022-10-17T05:15:14.511Z,97013.91
2022-10-17T05:15:46.949Z,97016.91
2022-10-17T05:16:19.066Z,97023.41
2022-10-17T05:16:51.149Z,97015.25
2022-10-17T05:17:22.947Z,97018.38
2022-10-17T05:17:56.677Z,97025.41
2022-10-17T05:18:29.734Z,97018.09
2022-10-17T05:19:02.371Z,97022.03
2022-10-17T05:19:40.728Z,97013.34
2022-10-17T05:20:13.387Z,97017.28
2022-10-17T05:20:46.628Z,97018.63
2022-10-17T05:21:20.475Z,97013.06
2022-10-17T05:21:52.657Z,97007.00
2022-10-17T05:22:24.654Z,97021.19
2022-10-17T05:22:59.691Z,97020.91
2022-10-17T05:23:36.102Z,97017.72
2022-10-17T05:24:09.769Z,97021.19
2022-10-17T05:24:44.073Z,97026.88
2022-10-17T05:25:16.742Z,97025.13
2022-10-17T05:25:54.769Z,97023.66
2022-10-17T05:26:28.932Z,97018.06
2022-10-17T05:27:01.396Z,97021.84
2022-10-17T05:27:33.349Z,97026.34
2022-10-17T05:28:05.198Z,97024.09
2022-10-17T05:28:37.229Z,97024.31
2022-10-17T05:29:10.409Z,97022.97
2022-10-17T05:29:46.977Z,97022.28
2022-10-17T05:30:26.480Z,97030.13
2022-10-17T05:31:08.032Z,97026.88
2022-10-17T05:31:40.906Z,97025.88
2022-10-17T05:32:14.571Z,97026.34
2022-10-17T05:32:46.480Z,97024.09
2022-10-17T05:33:18.448Z,97031.34
2022-10-17T05:33:50.725Z,97024.16
2022-10-17T05:34:24.467Z,97019.72
2022-10-17T05:34:56.417Z,97025.06
2022-10-17T05:35:30.319Z,97028.63
2022-10-17T05:36:02.201Z,97036.00
2022-10-17T05:36:34.886Z,97027.44
2022-10-17T05:37:10.300Z,97032.00
2022-10-17T05:37:42.816Z,97031.00
2022-10-17T05:38:15.252Z,97024.84
2022-10-17T05:38:51.210Z,97028.00
2022-10-17T05:39:23.403Z,97033.81
2022-10-17T05:39:56.931Z,97036.50
2022-10-17T05:40:29.636Z,97039.50
2022-10-17T05:41:03.680Z,97031.56
2022-10-17T05:41:36.156Z,97032.91
2022-10-17T05:42:08.032Z,97033.81
2022-10-17T05:42:46.722Z,97030.25
2022-10-17T05:43:19.093Z,97028.22
2022-10-17T05:43:51.734Z,97029.25
2022-10-17T05:44:27.667Z,97029.88
2022-10-17T05:45:03.141Z,97027.66
2022-10-17T05:45:36.568Z,97028.66
2022-10-17T05:46:09.772Z,97032.25
2022-10-17T05:46:41.794Z,97036.81
2022-10-17T05:47:14.643Z,97034.88
2022-10-17T05:47:47.044Z,97035.56
2022-10-17T05:48:19.195Z,97031.09
2022-10-17T05:48:51.045Z,97039.59
2022-10-17T05:49:33.369Z,97036.59
2022-10-17T05:50:15.208Z,97041.47
2022-10-17T05:51:08.829Z,97038.69
2022-10-17T05:51:41.594Z,97039.00
2022-10-17T05:52:13.527Z,97035.13
2022-10-17T05:53:20.455Z,97045.81
2022-10-17T05:53:55.797Z,97044.00
2022-10-17T05:54:31.300Z,97040.66
2022-10-17T05:55:05.071Z,97047.72
2022-10-17T05:55:36.871Z,97039.81
2022-10-17T05:56:11.994Z,97043.03
2022-10-17T05:56:44.389Z,97044.94
2022-10-17T05:57:16.300Z,97047.50
2022-10-17T05:57:50.165Z,97046.72
2022-10-17T05:58:45.397Z,97045.97
2022-10-17T05:59:24.532Z,97051.13
2022-10-17T06:00:04.860Z,97050.69
2022-10-17T06:01:24.345Z,97052.13
2022-10-17T06:01:56.927Z,97049.22
2022-10-17T06:02:29.070Z,97054.72
2022-10-17T06:03:01.183Z,97056.84
2022-10-17T06:03:34.217Z,97059.06
2022-10-17T06:04:10.078Z,97054.03
2022-10-17T06:04:45.928Z,97058.09
2022-10-17T06:05:19.459Z,97058.94
2022-10-17T06:05:52.575Z,97053.25
2022-10-17T06:06:32.000Z,97055.25
2022-10-17T06:07:05.018Z,97056.53
2022-10-17T06:07:38.434Z,97048.28
2022-10-17T06:08:11.306Z,97061.22
2022-10-17T06:08:43.803Z,97052.75
2022-10-17T06:09:19.778Z,97049.75
2022-10-17T06:09:54.312Z,97053.06
2022-10-17T06:10:28.656Z,97052.25
2022-10-17T06:11:01.696Z,97061.94
2022-10-17T06:11:36.442Z,97063.97
2022-10-17T06:12:08.746Z,97053.25
2022-10-17T06:12:40.756Z,97059.66
2022-10-17T06:13:12.596Z,97056.78
2022-10-17T06:13:44.932Z,97053.53
2022-10-17T06:14:22.824Z,97058.13
2022-10-17T06:14:58.299Z,97058.03
2022-10-17T06:15:31.445Z,97062.72
2022-10-17T06:16:08.370Z,97061.81
2022-10-17T06:16:40.401Z,97057.78
2022-10-17T06:17:16.084Z,97058.22
2022-10-17T06:17:48.944Z,97057.13
2022-10-17T06:18:21.544Z,97062.59
2022-10-17T06:18:53.494Z,97063.19
2022-10-17T06:19:25.441Z,97064.94
2022-10-17T06:19:57.578Z,97053.00
2022-10-17T06:20:30.040Z,97066.28
2022-10-17T06:21:07.088Z,97064.94
2022-10-17T06:21:39.844Z,97070.75
2022-10-17T06:22:17.071Z,97070.53
2022-10-17T06:22:49.135Z,97074.56
2022-10-17T06:23:29.289Z,97074.66
2022-10-17T06:24:07.193Z,97075.22
2022-10-17T06:24:45.048Z,97072.66
2022-10-17T06:25:19.305Z,97077.13
2022-10-17T06:25:51.144Z,97077.03
2022-10-17T06:26:23.047Z,97078.38
2022-10-17T06:26:55.264Z,97075.25
2022-10-17T06:27:27.431Z,97068.75
2022-10-17T06:27:59.465Z,97073.47
2022-10-17T06:28:31.568Z,97064.72
2022-10-17T06:29:03.899Z,97077.03
2022-10-17T06:29:40.452Z,97068.53
2022-10-17T06:30:12.323Z,97077.81
2022-10-17T06:30:45.172Z,97064.72
2022-10-17T06:31:17.606Z,97078.47
2022-10-17T06:31:49.683Z,97083.06
2022-10-17T06:32:22.136Z,97080.59
2022-10-17T06:32:55.693Z,97079.91
2022-10-17T06:33:27.596Z,97081.94
2022-10-17T06:33:59.708Z,97087.63
2022-10-17T06:34:31.619Z,97079.84
2022-10-17T06:35:05.071Z,97080.50
2022-10-17T06:35:38.490Z,97079.94
2022-10-17T06:36:13.212Z,97090.34
2022-10-17T06:36:45.408Z,97079.63
2022-10-17T06:37:17.422Z,97084.41
2022-10-17T06:37:50.700Z,97082.97
2022-10-17T06:38:23.600Z,97081.06
2022-10-17T06:38:57.636Z,97085.75
2022-10-17T06:39:37.255Z,97085.09
2022-10-17T06:40:17.273Z,97089.56
2022-10-17T06:40:50.127Z,97090.47
2022-10-17T06:41:21.942Z,97078.81
2022-10-17T06:41:57.250Z,97083.94
2022-10-17T06:42:43.900Z,97076.13
2022-10-17T06:43:30.346Z,97079.25
2022-10-17T06:44:31.929Z,97078.00
2022-10-17T06:45:38.919Z,97090.66
2022-10-17T06:46:21.115Z,97093.88
2022-10-17T06:47:16.547Z,97098.69
2022-10-17T06:47:51.575Z,97091.88
2022-10-17T06:48:46.371Z,97097.00
2022-10-17T06:49:34.467Z,97094.75
2022-10-17T06:50:25.184Z,97100.22
2022-10-17T06:51:36.352Z,97107.16
2022-10-17T06:52:10.615Z,97106.56
2022-10-17T06:52:55.596Z,97107.75
2022-10-17T06:53:57.993Z,97114.09
2022-10-17T06:54:48.655Z,97107.16
2022-10-17T06:55:38.017Z,97113.25
2022-10-17T06:56:37.950Z,97104.00
2022-10-17T06:57:24.061Z,97117.28
2022-10-17T06:58:28.517Z,97115.84
2022-10-17T06:59:10.236Z,97111.38
2022-10-17T06:59:44.305Z,97123.44
2022-10-17T07:00:23.383Z,97120.34
2022-10-17T07:01:06.173Z,97121.97
2022-10-17T07:01:41.885Z,97120.59
2022-10-17T07:02:17.698Z,97119.56
2022-10-17T07:02:50.132Z,97127.88
2022-10-17T07:03:22.321Z,97128.13
2022-10-17T07:03:54.610Z,97127.09
2022-10-17T07:04:27.354Z,97130.00
2022-10-17T07:04:59.229Z,97125.09
2022-10-17T07:05:31.069Z,97124.94
2022-10-17T07:06:04.345Z,97127.03
2022-10-17T07:06:37.710Z,97127.25
2022-10-17T07:07:17.709Z,97124.59
2022-10-17T07:07:51.862Z,97121.03
2022-10-17T07:08:24.920Z,97122.53
2022-10-17T07:08:58.367Z,97121.22
2022-10-17T07:09:31.451Z,97122.03
2022-10-17T07:10:04.328Z,97124.72
2022-10-17T07:10:38.596Z,97120.09
2022-10-17T07:11:17.703Z,97125.66